Avant, Oklahoma
Current Conditions -  °F | °C
As of 4:53 AM on Sunday 26 Oct 2014 (Local Time) from KBVO Reporting Station
Moderate Fog Moderate Fog  
Wind Chill: 53°   Ceiling: 200
Heat Index: 53°   Visibility: 0.5mi
Dew Point: 53°   Wind: 0mph
Humidity: 100%   Direction: NA
Pressure: 29.95"   Gusts: NA
Location:  36.49°N, 96.06°W
Report Text: KBVO 260953Z AUTO 00000KT 1/2SM FG VV002 12/12 A2995 RMK AO2 SLP134 T01170117 $
Loading
Personal Weather Stations






























Interactive Weather Map New forecast layout! Learn more

10-Day Weather Forecast

Advertisements
Track Severe Weather on mobile